Caribe Alliance — WDC9383 — position and weather

sailwx.info

Track history (hours):
 
Tides and Currents Weather Stations Pressure Air Temp Water Temp Dewpoint Dewpoint Depression Visibility Wind Speed Wind Dir Waves Ship Positions

Caribe Alliance

Owner: Gulf Caribe Maritime, Redondo Beach, CA. More information available from US FCC via Universal Licensing System and Coast Guard Vessel Documentation Center.

Last reported at 2015-May-24 03:19 UTC. Time now 2015-May-24 05:14 UTC.
Position N 33°55' W 118°27'.

Length 19 m; draft 3.3 m.

Type: Port tender. MMSI: 367101530.

Date/timePositionNaut miles runAvg speedWind from/ knotsBaromVisibWave heightAir tempDewpointWater temp
2015-May-24 03:19N 33°55' W 118°27'0 0.0
2015-May-24 02:20N 33°55' W 118°27'0 0.0
2015-May-24 01:17N 33°55' W 118°27'0 0.0
2015-May-24 00:30N 33°55' W 118°27'0 0.0
2015-May-23 21:08N 33°55' W 118°27'0 0.0
2015-May-23 20:33N 33°55' W 118°27'0 0.0
2015-May-23 19:33N 33°55' W 118°27'0 0.0
2015-May-23 18:33N 33°55' W 118°27'0 0.5
2015-May-23 17:33N 33°55' W 118°27'0 0.2
2015-May-23 16:31N 33°55' W 118°27'0 0.2
2015-May-23 15:33N 33°55' W 118°27'0 0.1
2015-May-23 14:33N 33°55' W 118°27'1 0.5
2015-May-23 13:29N 33°54' W 118°27'5 0.8
2015-May-23 07:33N 33°51' W 118°24'0 0.0
2015-May-23 06:25N 33°51' W 118°24'0 0.0
2015-May-22 22:10N 33°51' W 118°24'0 0.0
2015-May-22 13:06N 33°50' W 118°24'5 6.7
2015-May-22 12:20N 33°55' W 118°27'0 0.0
2015-May-22 01:05N 33°55' W 118°27'0 0.4
2015-May-22 00:31N 33°55' W 118°27'0 0.2
2015-May-21 23:27N 33°55' W 118°27'0 0.0
2015-May-21 22:25N 33°55' W 118°27'0 0.0
2015-May-21 21:04N 33°55' W 118°27'0 0.0
2015-May-21 20:31N 33°55' W 118°27'0 0.0
2015-May-21 19:33N 33°55' W 118°27'0 0.0
2015-May-21 18:33N 33°55' W 118°27'0 0.0
2015-May-21 17:33N 33°55' W 118°27'0 0.1
2015-May-21 16:33N 33°55' W 118°27'0 0.2
2015-May-21 15:33N 33°55' W 118°27'0 0.1
2015-May-21 14:17N 33°55' W 118°27'5 0.3
2015-May-20 21:32N 33°51' W 118°24'0 0.0
2015-May-20 19:20N 33°51' W 118°24'0 0.0
2015-May-20 16:19N 33°51' W 118°24'5 6.4
2015-May-20 15:33N 33°54' W 118°27'0 0.0
2015-May-20 06:04N 33°54' W 118°27'0 0.0
2015-May-20 05:33N 33°54' W 118°27'0 0.0
2015-May-20 03:31N 33°54' W 118°27'0 0.2
2015-May-20 02:26N 33°54' W 118°27'0 0.3
2015-May-20 01:32N 33°54' W 118°27'0 0.1
2015-May-20 00:30N 33°54' W 118°27'0 0.2
2015-May-19 23:33N 33°54' W 118°27'0 0.1
2015-May-19 22:33N 33°54' W 118°27'4 3.6
2015-May-19 21:33N 33°51' W 118°25'2 1.5
2015-May-19 20:28N 33°51' W 118°24'0 0.0
2015-May-19 19:24N 33°51' W 118°24'0 0.0
2015-May-19 18:30N 33°51' W 118°24'0 0.0
2015-May-19 17:23N 33°51' W 118°24'0 0.0
2015-May-19 16:17N 33°51' W 118°24'0 0.0
2015-May-19 14:04N 33°51' W 118°24'0 0.0
2015-May-18 21:25N 33°51' W 118°24'0 0.0
2015-May-18 20:31N 33°51' W 118°24'0 0.0
2015-May-18 19:32N 33°51' W 118°24'0 0.0
2015-May-18 18:33N 33°51' W 118°24'0 0.0
2015-May-18 17:23N 33°51' W 118°24'0 0.0
2015-May-18 16:10N 33°51' W 118°24'0 0.0
2015-May-18 15:33N 33°51' W 118°24'0 0.0
2015-May-18 01:17N 33°51' W 118°24'0 0.0
2015-May-17 23:05N 33°51' W 118°24'0 0.0
2015-May-17 22:33N 33°51' W 118°24'0 0.0
2015-May-17 21:33N 33°51' W 118°24'0 0.0
2015-May-17 20:30N 33°51' W 118°24'0 0.0
2015-May-17 19:33N 33°51' W 118°24'0 0.0
2015-May-17 18:33N 33°51' W 118°24'0 0.0
2015-May-17 17:33N 33°51' W 118°24'0 0.0
2015-May-17 16:33N 33°51' W 118°24'5 0.6
2015-May-17 08:22N 33°54' W 118°27'0 0.2
2015-May-17 07:25N 33°54' W 118°27'0 0.1
2015-May-17 06:28N 33°54' W 118°27'0 0.2
2015-May-17 05:09N 33°54' W 118°27'0 0.1
2015-May-17 02:23N 33°54' W 118°27'0 0.0
2015-May-17 00:18N 33°54' W 118°27'0 0.0
2015-May-16 23:24N 33°54' W 118°27'0 0.0
2015-May-16 22:24N 33°54' W 118°27'0 0.0
2015-May-16 21:33N 33°54' W 118°27'0 0.0
2015-May-16 20:29N 33°54' W 118°27'0 0.0
2015-May-16 19:29N 33°54' W 118°27'0 0.0
2015-May-16 18:33N 33°54' W 118°27'0 0.0
2015-May-16 17:23N 33°54' W 118°27'0 0.0
2015-May-16 16:24N 33°54' W 118°27'0 0.0
2015-May-16 15:30N 33°54' W 118°27'0 0.0
2015-May-16 14:30N 33°54' W 118°27'0 0.0
2015-May-16 13:23N 33°54' W 118°27'0 0.0
2015-May-16 12:26N 33°54' W 118°27'0 0.0
2015-May-16 11:27N 33°54' W 118°27'0 0.0
2015-May-16 10:24N 33°54' W 118°27'0 0.0
2015-May-16 00:17N 33°54' W 118°27'0 0.0
2015-May-15 23:11N 33°54' W 118°27'0 0.0
2015-May-15 22:30N 33°54' W 118°27'0 0.0
2015-May-15 21:32N 33°54' W 118°27'0 0.3
2015-May-15 20:31N 33°54' W 118°27'0 0.1
2015-May-15 19:33N 33°54' W 118°27'0 0.1
2015-May-15 18:33N 33°54' W 118°27'0 0.2
2015-May-15 17:33N 33°54' W 118°27'0 0.3
2015-May-15 16:33N 33°54' W 118°27'0 0.1
2015-May-15 14:23N 33°54' W 118°27'0 0.5
2015-May-15 13:33N 33°54' W 118°27'4 4.4
2015-May-15 12:33N 33°51' W 118°24'0 0.0
2015-May-15 11:33N 33°51' W 118°24'0 0.0
2015-May-15 10:27N 33°51' W 118°24'0 0.0
2015-May-15 09:15N 33°51' W 118°24'0 0.0
2015-May-15 08:33N 33°51' W 118°24'0 0.0
2015-May-15 07:27N 33°51' W 118°24'0 0.0
2015-May-15 06:33N 33°51' W 118°24'0 0.0
2015-May-15 05:33N 33°51' W 118°24'0 0.0
2015-May-15 04:33N 33°51' W 118°24'0 0.0
2015-May-15 03:27N 33°51' W 118°24'0 0.0
2015-May-15 02:33N 33°51' W 118°24'0 0.0
2015-May-15 01:33N 33°51' W 118°24'0 0.0
2015-May-15 00:30N 33°51' W 118°24'0 0.0
2015-May-14 23:33N 33°51' W 118°24'0 0.0
2015-May-14 22:33N 33°51' W 118°24'0 0.0
2015-May-14 21:33N 33°51' W 118°24'0 0.0
2015-May-14 20:27N 33°51' W 118°24'0 0.0
2015-May-14 17:33N 33°51' W 118°24'0 0.0
2015-May-14 16:21N 33°51' W 118°24'  
Track history (hours):
 
Tides and Currents Weather Stations Pressure Air Temp Water Temp Dewpoint Dewpoint Depression Visibility Wind Speed Wind Dir Waves Ship Positions

Caribe Alliance

Owner: Gulf Caribe Maritime, Redondo Beach, CA. More information available from US FCC via Universal Licensing System and Coast Guard Vessel Documentation Center.

Last reported at 2015-May-24 03:19 UTC. Time now 2015-May-24 05:14 UTC.
Position N 33°55' W 118°27'.

Length 19 m; draft 3.3 m.

Type: Port tender. MMSI: 367101530.

Date/timePositionNaut miles runAvg speedWind from/ knotsBaromVisibWave heightAir tempDewpointWater temp
2015-May-24 03:19N 33°55' W 118°27'0 0.0
2015-May-24 02:20N 33°55' W 118°27'0 0.0
2015-May-24 01:17N 33°55' W 118°27'0 0.0
2015-May-24 00:30N 33°55' W 118°27'0 0.0
2015-May-23 21:08N 33°55' W 118°27'0 0.0
2015-May-23 20:33N 33°55' W 118°27'0 0.0
2015-May-23 19:33N 33°55' W 118°27'0 0.0
2015-May-23 18:33N 33°55' W 118°27'0 0.5
2015-May-23 17:33N 33°55' W 118°27'0 0.2
2015-May-23 16:31N 33°55' W 118°27'0 0.2
2015-May-23 15:33N 33°55' W 118°27'0 0.1
2015-May-23 14:33N 33°55' W 118°27'1 0.5
2015-May-23 13:29N 33°54' W 118°27'5 0.8
2015-May-23 07:33N 33°51' W 118°24'0 0.0
2015-May-23 06:25N 33°51' W 118°24'0 0.0
2015-May-22 22:10N 33°51' W 118°24'0 0.0
2015-May-22 13:06N 33°50' W 118°24'5 6.7
2015-May-22 12:20N 33°55' W 118°27'0 0.0
2015-May-22 01:05N 33°55' W 118°27'0 0.4
2015-May-22 00:31N 33°55' W 118°27'0 0.2
2015-May-21 23:27N 33°55' W 118°27'0 0.0
2015-May-21 22:25N 33°55' W 118°27'0 0.0
2015-May-21 21:04N 33°55' W 118°27'0 0.0
2015-May-21 20:31N 33°55' W 118°27'0 0.0
2015-May-21 19:33N 33°55' W 118°27'0 0.0
2015-May-21 18:33N 33°55' W 118°27'0 0.0
2015-May-21 17:33N 33°55' W 118°27'0 0.1
2015-May-21 16:33N 33°55' W 118°27'0 0.2
2015-May-21 15:33N 33°55' W 118°27'0 0.1
2015-May-21 14:17N 33°55' W 118°27'5 0.3
2015-May-20 21:32N 33°51' W 118°24'0 0.0
2015-May-20 19:20N 33°51' W 118°24'0 0.0
2015-May-20 16:19N 33°51' W 118°24'5 6.4
2015-May-20 15:33N 33°54' W 118°27'0 0.0
2015-May-20 06:04N 33°54' W 118°27'0 0.0
2015-May-20 05:33N 33°54' W 118°27'0 0.0
2015-May-20 03:31N 33°54' W 118°27'0 0.2
2015-May-20 02:26N 33°54' W 118°27'0 0.3
2015-May-20 01:32N 33°54' W 118°27'0 0.1
2015-May-20 00:30N 33°54' W 118°27'0 0.2
2015-May-19 23:33N 33°54' W 118°27'0 0.1
2015-May-19 22:33N 33°54' W 118°27'4 3.6
2015-May-19 21:33N 33°51' W 118°25'2 1.5
2015-May-19 20:28N 33°51' W 118°24'0 0.0
2015-May-19 19:24N 33°51' W 118°24'0 0.0
2015-May-19 18:30N 33°51' W 118°24'0 0.0
2015-May-19 17:23N 33°51' W 118°24'0 0.0
2015-May-19 16:17N 33°51' W 118°24'0 0.0
2015-May-19 14:04N 33°51' W 118°24'0 0.0
2015-May-18 21:25N 33°51' W 118°24'0 0.0
2015-May-18 20:31N 33°51' W 118°24'0 0.0
2015-May-18 19:32N 33°51' W 118°24'0 0.0
2015-May-18 18:33N 33°51' W 118°24'0 0.0
2015-May-18 17:23N 33°51' W 118°24'0 0.0
2015-May-18 16:10N 33°51' W 118°24'0 0.0
2015-May-18 15:33N 33°51' W 118°24'0 0.0
2015-May-18 01:17N 33°51' W 118°24'0 0.0
2015-May-17 23:05N 33°51' W 118°24'0 0.0
2015-May-17 22:33N 33°51' W 118°24'0 0.0
2015-May-17 21:33N 33°51' W 118°24'0 0.0
2015-May-17 20:30N 33°51' W 118°24'0 0.0
2015-May-17 19:33N 33°51' W 118°24'0 0.0
2015-May-17 18:33N 33°51' W 118°24'0 0.0
2015-May-17 17:33N 33°51' W 118°24'0 0.0
2015-May-17 16:33N 33°51' W 118°24'5 0.6
2015-May-17 08:22N 33°54' W 118°27'0 0.2
2015-May-17 07:25N 33°54' W 118°27'0 0.1
2015-May-17 06:28N 33°54' W 118°27'0 0.2
2015-May-17 05:09N 33°54' W 118°27'0 0.1
2015-May-17 02:23N 33°54' W 118°27'0 0.0
2015-May-17 00:18N 33°54' W 118°27'0 0.0
2015-May-16 23:24N 33°54' W 118°27'0 0.0
2015-May-16 22:24N 33°54' W 118°27'0 0.0
2015-May-16 21:33N 33°54' W 118°27'0 0.0
2015-May-16 20:29N 33°54' W 118°27'0 0.0
2015-May-16 19:29N 33°54' W 118°27'0 0.0
2015-May-16 18:33N 33°54' W 118°27'0 0.0
2015-May-16 17:23N 33°54' W 118°27'0 0.0
2015-May-16 16:24N 33°54' W 118°27'0 0.0
2015-May-16 15:30N 33°54' W 118°27'0 0.0
2015-May-16 14:30N 33°54' W 118°27'0 0.0
2015-May-16 13:23N 33°54' W 118°27'0 0.0
2015-May-16 12:26N 33°54' W 118°27'0 0.0
2015-May-16 11:27N 33°54' W 118°27'0 0.0
2015-May-16 10:24N 33°54' W 118°27'0 0.0
2015-May-16 00:17N 33°54' W 118°27'0 0.0
2015-May-15 23:11N 33°54' W 118°27'0 0.0
2015-May-15 22:30N 33°54' W 118°27'0 0.0
2015-May-15 21:32N 33°54' W 118°27'0 0.3
2015-May-15 20:31N 33°54' W 118°27'0 0.1
2015-May-15 19:33N 33°54' W 118°27'0 0.1
2015-May-15 18:33N 33°54' W 118°27'0 0.2
2015-May-15 17:33N 33°54' W 118°27'0 0.3
2015-May-15 16:33N 33°54' W 118°27'0 0.1
2015-May-15 14:23N 33°54' W 118°27'0 0.5
2015-May-15 13:33N 33°54' W 118°27'4 4.4
2015-May-15 12:33N 33°51' W 118°24'0 0.0
2015-May-15 11:33N 33°51' W 118°24'0 0.0
2015-May-15 10:27N 33°51' W 118°24'0 0.0
2015-May-15 09:15N 33°51' W 118°24'0 0.0
2015-May-15 08:33N 33°51' W 118°24'0 0.0
2015-May-15 07:27N 33°51' W 118°24'0 0.0
2015-May-15 06:33N 33°51' W 118°24'0 0.0
2015-May-15 05:33N 33°51' W 118°24'0 0.0
2015-May-15 04:33N 33°51' W 118°24'0 0.0
2015-May-15 03:27N 33°51' W 118°24'0 0.0
2015-May-15 02:33N 33°51' W 118°24'0 0.0
2015-May-15 01:33N 33°51' W 118°24'0 0.0
2015-May-15 00:30N 33°51' W 118°24'0 0.0
2015-May-14 23:33N 33°51' W 118°24'0 0.0
2015-May-14 22:33N 33°51' W 118°24'0 0.0
2015-May-14 21:33N 33°51' W 118°24'0 0.0
2015-May-14 20:27N 33°51' W 118°24'0 0.0
2015-May-14 17:33N 33°51' W 118°24'0 0.0
2015-May-14 16:21N 33°51' W 118°24'  

Dump ship's entire track history